LFRO

Lannion-Côte de Granit Airport

Lannion, France
TAF LFRO 241100Z 2412/2512 04008KT 9999 BKN035
Issued Valid From Valid To
Sep-24 @ 11:00 UTC
(14 hours ago)
Sep-24 @ 12:00 UTC
(13 hours ago)
Sep-25 @ 12:00 UTC
(in 11 hours)
Sep-24 @ 12:00 to Sep-25 @ 12:00
TAF LFRO 241100Z 2412/2512 04008KT 9999 BKN035
Wind Visibility Clouds
40° at 8 knots 10,000+ meters
  • Broken at 3,500' AGL
TAF LFRO 241100Z 2412/2512 04008KT 9999 BKN035
Issued Sep-24 @ 11:00 UTC
(14 hours ago)
Valid From Sep-24 @ 12:00 UTC
(13 hours ago)
Valid To Sep-25 @ 12:00 UTC
(in 11 hours)
Sep-24 @ 12:00 - Sep-25 @ 12:00
Wind Visibility
40° at 8 knots 10,000+ meters
Clouds
  • Broken at 3,500' AGL